Toa Baja, PR

10:53 PM AST on February 07, 2016 (GMT -0400)
KP4MP DAVIS | | Change Station
CLOSE
Current Station
Personal Weather Station
Location: Sabana Seca, TOA BAJA
Elevation: 17 ft
Nearby Weather Stations

Elev 17 ft 18.44 °N, 66.18 °W | Updated 33 seconds ago

Clear
Clear
77.2 °F
Feels Like 79 °F
N
2.0
Wind Variable Wind from SE
Gusts 3.0 mph

Today
High -- | Low -- °F
--% Chance of Precip.
Yesterday
High -- | Low -- °F
Precip. -- in
Pressure 30.06 in
Visibility 10.0 miles
Clouds Clear
Heat Index 79 °F
Dew Point 71 °F
Humidity 82%
Rainfall in
Snow Depth Not available.
6:56 AM 6:21 PM
Waning Crescent, 0% visible
METAR TJSJ 080156Z 00000KT 10SM CLR 25/21 A3006 RMK AO2 SLP177 T02500211
Pressure 30.06 in
Visibility 10.0 miles
Clouds Clear
Heat Index 79 °F
Dew Point 71 °F
Humidity 82%
Rainfall in
Snow Depth Not available.
6:56 AM 6:21 PM
Waning Crescent, 0% visible
METAR TJSJ 080156Z 00000KT 10SM CLR 25/21 A3006 RMK AO2 SLP177 T02500211

10-Day Weather Forecast

Almanac

Astronomy

Feb. 07, 2016 Rise Set
Actual Time
Civil Twilight
Nautical Twilight
Astronomical Twilight
Moon
Length of Visible Light
Length of Day
Tomorrow will be .
, % of the Moon is Illuminated

Today's Extremes

State Highs State Lows

Community

WunderPhotos

Upload Photos

1,891,373 photos uploaded!

WunderBlog® & News

Nearby

Air Quality

  Air Quality AQ Index Pollutant
Not available.

Snow Depth

Station Depth Elevation

Earthquake Activity

City Distance Mag. Time & Date
Minimum magnitude displayed is 2.5.

Coastal Water Temperatures

Place Temperature

Stations

Nearby Weather Stations

Station Location Temp. Windchill Dew Point Humidity Wind Precip. Elev Updated Type
                   

Watches & Warnings

There are currently no watches in effect.